Time;durP1;ratioP1;P1;durP2;ratioP2;P2;SDS_P1;SDS_P2;PMS_P1;PMS_P2;Temp;Humidity;BMP_temperature;BMP_pressure;BME280_temperature;BME280_humidity;BME280_pressure;Samples;Min_cycle;Max_cycle;Signal;HPM_P1;HPM_P2
2020/12/26 00:00:36;;;;;;;0.50;0.50;;;;;;;-2.40;79.05;96111.72;6028397;23;20447;-70
2020/12/26 00:03:03;;;;;;;0.37;0.30;;;;;;;-2.53;80.42;96103.09;6030396;23;20821;-70
2020/12/26 00:05:30;;;;;;;1.07;0.70;;;;;;;-2.50;80.51;96100.31;6025944;23;20986;-71
2020/12/26 00:07:57;;;;;;;0.67;0.40;;;;;;;-2.60;79.48;96100.84;6028790;23;20548;-71
2020/12/26 00:10:24;;;;;;;0.30;0.27;;;;;;;-2.60;79.62;96100.84;6029472;23;20474;-71
2020/12/26 00:12:51;;;;;;;0.97;0.40;;;;;;;-2.42;79.83;96101.50;6029930;23;20451;-71
2020/12/26 00:15:18;;;;;;;1.33;1.27;;;;;;;-2.30;78.52;96099.91;6028240;23;20444;-71
2020/12/26 00:17:45;;;;;;;0.40;0.30;;;;;;;-2.36;78.84;96095.13;6028229;23;20467;-70
2020/12/26 00:20:12;;;;;;;0.67;0.60;;;;;;;-2.33;79.45;96100.94;6026945;23;21002;-70
2020/12/26 00:22:39;;;;;;;1.33;0.50;;;;;;;-2.48;79.68;96107.03;6029628;23;20496;-70
2020/12/26 00:25:06;;;;;;;1.00;0.83;;;;;;;-2.42;79.26;96111.00;6028440;23;20444;-71
2020/12/26 00:27:33;;;;;;;1.30;0.27;;;;;;;-2.43;78.80;96109.34;6030059;23;20443;-71
2020/12/26 00:30:00;;;;;;;0.50;0.50;;;;;;;-2.50;79.94;96123.56;6030299;23;20519;-71
2020/12/26 00:32:27;;;;;;;0.87;0.57;;;;;;;-2.57;79.46;96123.91;6029072;23;20440;-70
2020/12/26 00:34:54;;;;;;;0.73;0.73;;;;;;;-2.60;80.80;96118.13;6028500;23;20444;-71
2020/12/26 00:37:20;;;;;;;0.60;0.60;;;;;;;-2.67;81.02;96122.81;6030154;23;20450;-71
2020/12/26 00:39:47;;;;;;;0.30;0.30;;;;;;;-2.66;82.15;96116.72;6028369;23;20939;-71
2020/12/26 00:42:14;;;;;;;1.33;0.30;;;;;;;-2.54;81.39;96122.09;6029605;23;20820;-71
2020/12/26 00:44:42;;;;;;;0.50;0.40;;;;;;;-2.56;79.84;96124.78;6028224;23;20846;-71
2020/12/26 00:47:08;;;;;;;0.53;0.53;;;;;;;-2.73;80.57;96123.19;6029420;23;20447;-71
2020/12/26 00:49:43;;;;;;;0.40;0.30;;;;;;;-2.67;80.29;96122.81;6026062;23;20439;-71
2020/12/26 00:52:10;;;;;;;0.60;0.40;;;;;;;-2.82;82.37;96126.34;6025971;23;20570;-71
2020/12/26 00:54:38;;;;;;;0.30;0.30;;;;;;;-3.04;83.47;96128.50;6027121;23;20578;-70
2020/12/26 00:57:05;;;;;;;0.60;0.47;;;;;;;-3.06;84.66;96135.50;6027105;23;20502;-70
2020/12/26 00:59:32;;;;;;;0.80;0.40;;;;;;;-3.03;85.60;96136.16;6026490;23;20522;-70
2020/12/26 01:02:00;;;;;;;0.47;0.40;;;;;;;-2.91;86.40;96135.44;6026425;23;20494;-71
2020/12/26 01:04:36;;;;;;;1.23;1.00;;;;;;;-3.18;86.59;96132.72;6026482;23;20741;-71
2020/12/26 01:07:03;;;;;;;1.30;1.20;;;;;;;-3.28;87.54;96139.34;6028178;23;20440;-71
2020/12/26 01:09:31;;;;;;;2.73;0.83;;;;;;;-3.16;88.02;96136.03;6027739;23;20450;-70
2020/12/26 01:11:58;;;;;;;2.17;1.90;;;;;;;-3.04;88.20;96133.66;6027469;23;20447;-71
2020/12/26 01:14:24;;;;;;;0.50;0.40;;;;;;;-3.13;88.29;96144.53;6027648;23;20515;-70
2020/12/26 01:16:52;;;;;;;1.50;1.30;;;;;;;-3.31;88.41;96131.75;6026125;23;20435;-70
2020/12/26 01:19:20;;;;;;;1.73;0.67;;;;;;;-3.35;88.60;96135.44;6028488;23;20444;-70
2020/12/26 01:21:50;;;;;;;1.10;1.00;;;;;;;-3.40;89.13;96132.28;6027903;23;20492;-71
2020/12/26 01:24:17;;;;;;;0.90;0.90;;;;;;;-3.47;89.23;96142.13;6027146;23;21185;-70
2020/12/26 01:26:46;;;;;;;1.83;1.73;;;;;;;-3.48;89.38;96139.63;6026542;23;20507;-71
2020/12/26 01:29:13;;;;;;;1.07;0.97;;;;;;;-3.46;89.45;96148.13;6028980;23;20447;-70
2020/12/26 01:31:40;;;;;;;1.00;0.90;;;;;;;-3.46;90.22;96142.97;6026703;23;20443;-71
2020/12/26 01:34:07;;;;;;;1.83;1.73;;;;;;;-3.48;89.49;96145.59;6027574;23;20508;-71
2020/12/26 01:36:38;;;;;;;2.23;1.80;;;;;;;-3.52;89.83;96140.72;6028208;23;20428;-70
2020/12/26 01:39:05;;;;;;;1.30;1.20;;;;;;;-3.63;89.40;96140.50;6028530;23;20756;-70
2020/12/26 01:41:32;;;;;;;1.20;1.10;;;;;;;-3.49;90.56;96143.13;6025082;23;20451;-71
2020/12/26 01:44:00;;;;;;;1.53;1.30;;;;;;;-3.30;90.62;96142.91;6027847;23;20435;-71
2020/12/26 01:46:29;;;;;;;1.63;1.53;;;;;;;-3.25;90.94;96141.72;6027867;23;20439;-71
2020/12/26 01:48:57;;;;;;;1.30;1.10;;;;;;;-3.25;90.59;96131.41;6026208;23;20444;-70
2020/12/26 01:51:24;;;;;;;0.63;0.63;;;;;;;-3.27;90.71;96138.41;6024696;23;20451;-70
2020/12/26 01:53:53;;;;;;;1.33;1.23;;;;;;;-3.28;89.93;96136.75;6027633;23;20443;-71
2020/12/26 01:56:21;;;;;;;2.63;1.20;;;;;;;-3.29;89.71;96135.09;6026775;23;20440;-70
2020/12/26 01:58:49;;;;;;;1.37;1.30;;;;;;;-3.38;89.57;96139.91;6028295;23;20448;-70
2020/12/26 02:01:16;;;;;;;1.33;1.23;;;;;;;-3.46;90.45;96145.53;6029443;23;20446;-70
2020/12/26 02:03:43;;;;;;;1.10;1.00;;;;;;;-3.51;90.14;96142.38;6031600;23;20502;-70
2020/12/26 02:06:12;;;;;;;0.83;0.83;;;;;;;-3.45;90.33;96149.78;6029425;23;20452;-70
2020/12/26 02:08:39;;;;;;;1.17;0.87;;;;;;;-3.44;90.03;96141.94;6030826;23;20765;-69
2020/12/26 02:11:07;;;;;;;1.07;1.07;;;;;;;-3.58;90.47;96133.31;6030402;23;21029;-70
2020/12/26 02:13:35;;;;;;;1.37;1.27;;;;;;;-3.59;90.02;96136.81;6028223;23;20474;-69
2020/12/26 02:16:04;;;;;;;1.20;1.00;;;;;;;-3.66;90.94;96143.22;6031225;23;20439;-71
2020/12/26 02:18:31;;;;;;;0.73;0.67;;;;;;;-3.63;90.20;96132.75;6030808;23;20491;-71
2020/12/26 02:20:59;;;;;;;1.57;1.47;;;;;;;-3.63;91.15;96143.06;6028926;23;20508;-70
2020/12/26 02:23:26;;;;;;;1.07;0.97;;;;;;;-3.62;90.17;96157.63;6030565;23;20500;-71
2020/12/26 02:25:56;;;;;;;0.87;0.83;;;;;;;-3.70;90.64;96159.81;6029215;23;20515;-71
2020/12/26 02:28:23;;;;;;;1.37;1.27;;;;;;;-3.70;90.53;96167.53;6029831;23;20502;-71
2020/12/26 02:30:50;;;;;;;0.87;0.87;;;;;;;-3.79;91.02;96172.28;6028433;23;20447;-71
2020/12/26 02:33:17;;;;;;;1.73;1.63;;;;;;;-3.79;91.03;96177.44;6028147;23;21177;-70
2020/12/26 02:35:46;;;;;;;1.00;0.87;;;;;;;-3.77;90.94;96175.59;6030074;23;20442;-71
2020/12/26 02:38:13;;;;;;;2.10;0.83;;;;;;;-3.79;90.71;96181.75;6028955;23;20438;-71
2020/12/26 02:40:40;;;;;;;2.80;1.37;;;;;;;-3.75;91.33;96184.09;6030450;23;21165;-70
2020/12/26 02:43:18;;;;;;;0.93;0.83;;;;;;;-3.65;90.71;96179.28;6029360;23;20795;-70
2020/12/26 02:45:44;;;;;;;6.67;1.93;;;;;;;-3.65;90.81;96175.88;6058993;23;20438;-70
2020/12/26 02:48:12;;;;;;;1.57;1.47;;;;;;;-3.63;90.81;96174.03;6058050;23;20438;-70
2020/12/26 02:50:53;;;;;;;1.63;1.50;;;;;;;-3.66;91.31;96179.34;6057559;23;20469;-71
2020/12/26 02:53:20;;;;;;;1.60;1.03;;;;;;;-3.69;91.37;96176.94;6059903;23;20450;-71
2020/12/26 02:55:47;;;;;;;1.67;1.57;;;;;;;-3.73;91.42;96186.59;6058405;23;20442;-71
2020/12/26 02:58:15;;;;;;;1.73;1.63;;;;;;;-3.77;90.66;96196.22;6060304;23;20498;-71
2020/12/26 03:00:42;;;;;;;2.63;2.33;;;;;;;-3.92;90.71;96194.50;6054399;23;20501;-71
2020/12/26 03:03:09;;;;;;;1.70;1.60;;;;;;;-4.03;90.53;96202.78;6059967;23;20439;-70
2020/12/26 03:05:40;;;;;;;2.50;2.13;;;;;;;-4.07;91.17;96208.19;6057508;23;20953;-70
2020/12/26 03:08:07;;;;;;;2.30;2.03;;;;;;;-4.03;91.09;96199.38;6058100;23;20439;-71
2020/12/26 03:10:34;;;;;;;3.20;3.00;;;;;;;-4.01;92.40;96207.88;6058172;23;20548;-70
2020/12/26 03:13:01;;;;;;;3.33;2.90;;;;;;;-3.99;92.21;96202.66;6056896;23;20438;-70
2020/12/26 03:15:28;;;;;;;3.77;3.40;;;;;;;-3.94;92.25;96209.19;6058169;23;20942;-70
2020/12/26 03:17:55;;;;;;;2.67;2.47;;;;;;;-3.94;92.34;96201.47;6058192;23;20450;-70
2020/12/26 03:20:23;;;;;;;4.30;3.90;;;;;;;-3.90;92.77;96202.97;6057611;23;20454;-71
2020/12/26 03:22:49;;;;;;;3.20;3.00;;;;;;;-3.94;92.93;96198.06;6058006;23;20452;-70
2020/12/26 03:25:19;;;;;;;4.37;4.03;;;;;;;-3.93;92.47;96194.56;6058246;23;20513;-71
2020/12/26 03:27:46;;;;;;;3.87;3.53;;;;;;;-3.90;92.17;96200.41;6057248;23;20447;-70
2020/12/26 03:30:13;;;;;;;2.80;2.60;;;;;;;-3.90;92.61;96199.56;6056004;23;20498;-70
2020/12/26 03:32:41;;;;;;;3.10;2.77;;;;;;;-4.03;92.29;96201.97;6058127;23;20446;-70
2020/12/26 03:35:08;;;;;;;2.97;2.73;;;;;;;-4.12;91.88;96199.88;6058076;23;20438;-71
2020/12/26 03:37:35;;;;;;;5.00;4.30;;;;;;;-4.32;91.91;96204.31;6057432;23;20514;-70
2020/12/26 03:40:04;;;;;;;6.33;5.73;;;;;;;-4.35;92.42;96208.81;6056291;23;20439;-71
2020/12/26 03:42:32;;;;;;;6.53;3.60;;;;;;;-4.39;92.54;96208.16;6056475;23;21146;-71
2020/12/26 03:44:58;;;;;;;3.93;3.63;;;;;;;-4.34;93.13;96216.47;6057207;23;20442;-71
2020/12/26 03:47:25;;;;;;;6.47;4.20;;;;;;;-4.26;93.62;96215.25;6057708;23;20439;-70
2020/12/26 03:49:53;;;;;;;5.20;4.80;;;;;;;-4.20;93.90;96217.50;6057093;23;20438;-70
2020/12/26 03:52:20;;;;;;;5.40;4.77;;;;;;;-4.16;93.90;96217.25;6058290;23;20470;-70
2020/12/26 03:54:46;;;;;;;6.30;4.77;;;;;;;-4.15;94.36;96216.34;6057981;23;20853;-71
2020/12/26 03:57:14;;;;;;;4.43;4.03;;;;;;;-4.17;94.35;96213.00;6057909;23;20500;-71
2020/12/26 03:59:41;;;;;;;4.13;3.80;;;;;;;-4.12;94.86;96220.47;6057058;23;20443;-71
2020/12/26 04:02:08;;;;;;;5.13;4.20;;;;;;;-4.11;94.33;96222.19;6057552;23;20486;-70
2020/12/26 04:04:35;;;;;;;6.77;5.03;;;;;;;-4.04;94.40;96203.69;6057714;23;20446;-71
2020/12/26 04:07:03;;;;;;;7.47;4.47;;;;;;;-3.96;94.20;96226.50;6055967;23;21084;-70
2020/12/26 04:09:30;;;;;;;5.87;3.97;;;;;;;-3.86;93.98;96222.50;6057367;23;20449;-71
2020/12/26 04:11:57;;;;;;;4.80;4.37;;;;;;;-3.81;94.26;96219.69;6054537;23;20447;-71
2020/12/26 04:14:23;;;;;;;4.00;3.60;;;;;;;-3.77;93.48;96216.03;6056905;23;20505;-71
2020/12/26 04:16:55;;;;;;;3.63;3.23;;;;;;;-3.79;93.49;96225.59;6055892;23;20438;-70
2020/12/26 04:19:22;;;;;;;4.77;4.47;;;;;;;-3.92;92.94;96225.44;6055439;23;20536;-70
2020/12/26 04:21:53;;;;;;;4.63;4.23;;;;;;;-3.95;93.55;96228.16;6055277;23;20439;-71
2020/12/26 04:24:21;;;;;;;4.20;3.90;;;;;;;-4.02;93.40;96232.00;6057466;23;20466;-70
2020/12/26 04:26:48;;;;;;;4.87;4.37;;;;;;;-4.09;92.66;96236.63;6056768;23;20435;-71
2020/12/26 04:29:14;;;;;;;3.70;3.50;;;;;;;-4.23;92.33;96243.41;6057458;23;20438;-70
2020/12/26 04:31:41;;;;;;;3.57;3.27;;;;;;;-4.36;92.46;96244.06;6057386;23;21006;-70
2020/12/26 04:34:08;;;;;;;4.70;4.27;;;;;;;-4.43;92.93;96242.69;6057248;23;20462;-70
2020/12/26 04:36:35;;;;;;;4.13;3.80;;;;;;;-4.36;93.38;96249.22;6057857;23;20437;-71
2020/12/26 04:39:02;;;;;;;3.97;3.33;;;;;;;-4.16;93.02;96249.91;6057806;23;20453;-70
2020/12/26 04:41:32;;;;;;;3.20;3.00;;;;;;;-4.37;92.86;96263.00;6056503;23;20439;-71
2020/12/26 04:44:01;;;;;;;4.13;3.73;;;;;;;-4.55;92.26;96261.38;6055987;23;20838;-70
2020/12/26 04:46:29;;;;;;;3.80;3.50;;;;;;;-4.53;92.83;96266.44;6055462;23;20531;-71
2020/12/26 04:49:04;;;;;;;4.47;3.53;;;;;;;-4.49;92.49;96267.94;6056813;23;20467;-70
2020/12/26 04:51:35;;;;;;;3.60;3.30;;;;;;;-4.66;92.34;96279.09;6056795;23;21066;-70
2020/12/26 04:54:15;;;;;;;4.57;3.90;;;;;;;-4.74;92.69;96281.22;6052609;23;20453;-71
2020/12/26 04:56:44;;;;;;;4.17;3.77;;;;;;;-4.78;93.54;96283.09;6056280;23;20442;-71
2020/12/26 04:59:12;;;;;;;4.37;3.97;;;;;;;-4.76;93.61;96295.88;6056822;23;20443;-71
2020/12/26 05:01:41;;;;;;;4.03;3.80;;;;;;;-4.69;93.34;96290.38;6056394;23;20457;-70
2020/12/26 05:04:09;;;;;;;5.10;4.17;;;;;;;-4.81;93.44;96292.72;6055033;23;20439;-71
2020/12/26 05:06:46;;;;;;;3.83;3.53;;;;;;;-4.81;93.04;96293.56;6057221;23;20435;-70
2020/12/26 05:09:13;;;;;;;4.33;3.03;;;;;;;-4.80;93.42;96295.22;6056787;23;20452;-71
2020/12/26 05:11:40;;;;;;;3.70;3.40;;;;;;;-4.78;93.77;96305.44;6055833;23;20453;-70
2020/12/26 05:14:08;;;;;;;4.67;4.27;;;;;;;-4.64;93.90;96308.19;6054999;23;20979;-71
2020/12/26 05:16:35;;;;;;;4.43;3.83;;;;;;;-4.55;93.92;96309.47;6056457;23;20445;-70
2020/12/26 05:19:02;;;;;;;5.60;3.57;;;;;;;-4.49;93.87;96312.53;6055259;23;20474;-71
2020/12/26 05:21:29;;;;;;;3.87;3.53;;;;;;;-4.37;93.60;96324.84;6056838;23;20431;-71
2020/12/26 05:24:03;;;;;;;9.30;5.93;;;;;;;-4.34;93.60;96322.09;6054835;23;20867;-70
2020/12/26 05:26:31;;;;;;;3.80;3.07;;;;;;;-4.26;93.67;96321.72;6056000;23;20470;-70
2020/12/26 05:29:02;;;;;;;4.73;4.27;;;;;;;-4.18;94.21;96323.91;6054733;23;20439;-71
2020/12/26 05:31:46;;;;;;;4.73;4.30;;;;;;;-4.10;93.69;96319.19;6054530;23;20468;-70
2020/12/26 05:34:14;;;;;;;4.37;3.97;;;;;;;-3.99;93.46;96329.78;6053847;23;20500;-70
2020/12/26 05:36:41;;;;;;;5.10;4.07;;;;;;;-3.90;93.21;96333.63;6055137;23;21137;-71
2020/12/26 05:39:10;;;;;;;4.77;4.47;;;;;;;-3.84;92.99;96331.56;6056779;23;20946;-71
2020/12/26 05:41:42;;;;;;;4.60;4.20;;;;;;;-3.88;92.28;96332.63;6056326;23;20443;-70
2020/12/26 05:44:12;;;;;;;5.37;4.63;;;;;;;-3.89;92.74;96333.53;6055557;23;20471;-70
2020/12/26 05:46:57;;;;;;;5.07;4.20;;;;;;;-3.84;92.71;96326.41;6054590;23;20517;-69
2020/12/26 05:49:27;;;;;;;3.90;3.30;;;;;;;-3.85;92.26;96327.31;6055042;23;20438;-71
2020/12/26 05:51:57;;;;;;;5.03;4.63;;;;;;;-3.88;92.00;96316.34;6056981;23;20430;-71
2020/12/26 05:54:25;;;;;;;4.27;3.87;;;;;;;-3.87;92.64;96318.00;6028037;23;20534;-70
2020/12/26 05:57:09;;;;;;;4.00;3.70;;;;;;;-3.86;92.21;96324.81;6028231;23;20448;-71
2020/12/26 05:59:36;;;;;;;4.20;3.77;;;;;;;-3.89;92.09;96330.13;6055502;23;20541;-70
2020/12/26 06:02:19;;;;;;;5.63;4.97;;;;;;;-3.87;91.95;96326.56;6056943;23;20507;-70
2020/12/26 06:05:02;;;;;;;5.50;4.23;;;;;;;-3.83;92.26;96325.50;6053734;23;20495;-71
2020/12/26 06:07:32;;;;;;;4.97;4.50;;;;;;;-3.78;90.81;96323.50;6054452;23;20433;-70
2020/12/26 06:10:00;;;;;;;4.50;3.83;;;;;;;-3.82;90.93;96336.66;6055886;23;20936;-70
2020/12/26 06:12:29;;;;;;;5.03;4.53;;;;;;;-3.84;90.71;96334.16;6054278;23;20466;-70
2020/12/26 06:14:57;;;;;;;4.07;3.73;;;;;;;-3.89;91.04;96330.97;6057077;23;20442;-71
2020/12/26 06:17:27;;;;;;;3.60;3.30;;;;;;;-3.90;90.50;96337.03;6057159;23;20435;-70
2020/12/26 06:20:02;;;;;;;5.33;3.73;;;;;;;-3.95;90.71;96340.75;6027589;23;20502;-70
2020/12/26 06:22:46;;;;;;;5.00;4.30;;;;;;;-4.02;91.51;96337.69;6056033;23;20473;-70
2020/12/26 06:25:16;;;;;;;5.00;4.43;;;;;;;-3.97;91.31;96338.25;6051288;23;20466;-70
2020/12/26 06:28:01;;;;;;;4.87;4.37;;;;;;;-3.99;91.97;96345.25;6055394;23;20842;-70
2020/12/26 06:30:29;;;;;;;4.67;4.27;;;;;;;-3.97;91.53;96338.25;6026850;23;20862;-69
2020/12/26 06:32:58;;;;;;;5.50;5.03;;;;;;;-3.84;91.62;96338.44;6028265;23;20439;-70
2020/12/26 06:35:25;;;;;;;4.10;3.70;;;;;;;-3.85;90.66;96337.63;6053650;23;20435;-70
2020/12/26 06:38:14;;;;;;;7.23;6.53;;;;;;;-3.93;91.27;96334.63;6056204;23;20435;-70
2020/12/26 06:40:51;;;;;;;3.73;3.43;;;;;;;-4.01;91.07;96341.91;6053386;23;20467;-69
2020/12/26 06:43:47;;;;;;;4.83;4.40;;;;;;;-4.09;91.44;96344.06;6055525;23;20438;-71
2020/12/26 06:46:39;;;;;;;5.30;4.80;;;;;;;-4.18;91.25;96349.66;6055681;23;20435;-69
2020/12/26 06:49:22;;;;;;;4.63;4.23;;;;;;;-4.10;91.86;96343.22;6057543;23;20454;-68
2020/12/26 06:51:49;;;;;;;3.77;3.47;;;;;;;-4.16;90.91;96345.28;6054042;23;20478;-69
2020/12/26 06:54:36;;;;;;;5.50;4.07;;;;;;;-4.24;91.79;96344.81;6058207;23;20450;-68
2020/12/26 06:57:03;;;;;;;5.13;4.10;;;;;;;-4.20;92.06;96351.50;6029589;23;20435;-68
2020/12/26 06:59:32;;;;;;;4.87;4.37;;;;;;;-4.22;92.01;96353.28;6026719;23;20438;-68
2020/12/26 07:02:04;;;;;;;4.10;3.70;;;;;;;-4.22;91.84;96355.88;6029550;23;20520;-68
2020/12/26 07:04:38;;;;;;;4.87;4.47;;;;;;;-4.26;91.51;96357.78;6028298;23;20488;-69
2020/12/26 07:07:05;;;;;;;4.70;4.30;;;;;;;-4.31;91.84;96364.91;6028429;23;20435;-68
2020/12/26 07:09:49;;;;;;;5.37;4.80;;;;;;;-4.35;92.75;96369.38;6027918;23;20443;-68
2020/12/26 07:12:16;;;;;;;6.13;4.80;;;;;;;-4.33;92.10;96377.84;6022560;23;20451;-68
2020/12/26 07:14:44;;;;;;;5.17;4.77;;;;;;;-4.30;92.75;96375.16;6026295;23;20622;-68
2020/12/26 07:17:29;;;;;;;4.73;4.30;;;;;;;-4.24;92.36;96376.56;6028916;23;20539;-68
2020/12/26 07:19:59;;;;;;;6.07;4.93;;;;;;;-4.12;92.26;96369.97;6056546;23;20533;-67
2020/12/26 07:22:27;;;;;;;4.60;4.20;;;;;;;-4.05;91.95;96376.47;6028583;23;20459;-67
2020/12/26 07:24:55;;;;;;;5.00;4.53;;;;;;;-3.97;92.07;96379.50;6027249;23;20440;-68
2020/12/26 07:27:30;;;;;;;4.90;4.40;;;;;;;-3.92;92.30;96376.72;6028280;23;20443;-68
2020/12/26 07:30:06;;;;;;;5.73;5.10;;;;;;;-3.74;91.82;96370.59;6026508;23;20439;-68
2020/12/26 07:32:48;;;;;;;4.43;3.90;;;;;;;-3.70;90.72;96374.69;6046264;23;20426;-68
2020/12/26 07:35:28;;;;;;;4.77;3.73;;;;;;;-3.66;90.73;96383.09;6055380;23;20497;-68
2020/12/26 07:37:56;;;;;;;5.17;4.70;;;;;;;-3.61;90.22;96388.84;6057422;23;20990;-68
2020/12/26 07:40:25;;;;;;;4.07;3.67;;;;;;;-3.61;89.86;96396.59;6057542;23;20804;-67
2020/12/26 07:42:53;;;;;;;5.83;5.23;;;;;;;-3.54;89.97;96397.94;6056923;23;21110;-68
2020/12/26 07:45:21;;;;;;;6.63;6.03;;;;;;;-3.50;89.11;96396.84;6057613;23;20442;-68
2020/12/26 07:47:51;;;;;;;8.17;6.70;;;;;;;-3.45;89.58;96397.47;6057130;23;20453;-68
2020/12/26 07:50:19;;;;;;;6.10;4.70;;;;;;;-3.36;89.82;96399.56;6055389;23;20446;-68
2020/12/26 07:52:49;;;;;;;8.57;6.67;;;;;;;-3.34;88.62;96405.47;6055345;23;20443;-68
2020/12/26 07:55:15;;;;;;;7.77;6.23;;;;;;;-3.43;88.88;96400.78;6056492;23;20442;-68
2020/12/26 07:57:42;;;;;;;5.93;5.20;;;;;;;-3.38;89.03;96403.97;6056232;23;20490;-69
2020/12/26 08:00:21;;;;;;;7.47;6.83;;;;;;;-3.33;89.38;96396.81;6057103;23;20546;-68
2020/12/26 08:02:52;;;;;;;5.47;4.83;;;;;;;-3.32;88.64;96393.31;6056749;23;20446;-68
2020/12/26 08:05:20;;;;;;;5.07;4.67;;;;;;;-3.26;88.89;96397.31;6054561;23;20443;-68
2020/12/26 08:07:48;;;;;;;8.10;6.93;;;;;;;-3.28;88.24;96400.00;6056715;23;20537;-68
2020/12/26 08:10:17;;;;;;;5.23;4.83;;;;;;;-3.21;88.50;96395.31;6056159;23;21037;-68
2020/12/26 08:12:48;;;;;;;4.57;4.07;;;;;;;-3.12;87.49;96399.97;6054516;23;20439;-68
2020/12/26 08:15:19;;;;;;;4.90;3.47;;;;;;;-3.04;87.44;96402.97;6055605;23;20506;-68
2020/12/26 08:17:48;;;;;;;5.53;5.13;;;;;;;-2.96;86.92;96400.00;6055799;23;20451;-67
2020/12/26 08:20:16;;;;;;;6.07;5.50;;;;;;;-2.92;86.73;96406.69;6054499;23;20829;-68
2020/12/26 08:22:43;;;;;;;5.33;4.23;;;;;;;-2.86;87.25;96407.16;6056767;23;20435;-67
2020/12/26 08:25:12;;;;;;;6.90;4.27;;;;;;;-2.74;86.30;96405.66;6051273;23;20926;-68
2020/12/26 08:27:40;;;;;;;4.43;4.03;;;;;;;-2.67;86.26;96393.22;6053309;23;20919;-68
2020/12/26 08:30:08;;;;;;;5.60;3.83;;;;;;;-2.62;85.86;96396.41;6056413;23;20497;-68
2020/12/26 08:32:51;;;;;;;7.27;5.07;;;;;;;-2.51;85.82;96388.03;6057027;23;21162;-67
2020/12/26 08:35:20;;;;;;;5.03;4.53;;;;;;;-2.35;84.41;96386.25;6056379;23;20462;-68
2020/12/26 08:37:53;;;;;;;4.37;3.97;;;;;;;-2.24;83.88;96395.97;6057067;23;20439;-68
2020/12/26 08:40:22;;;;;;;4.77;4.17;;;;;;;-1.97;83.43;96401.31;6056662;23;20447;-68
2020/12/26 08:42:49;;;;;;;7.57;4.80;;;;;;;-1.65;82.37;96402.84;6054190;23;20501;-68
2020/12/26 08:45:27;;;;;;;6.17;5.67;;;;;;;-1.60;81.91;96393.06;6056705;23;20438;-68
2020/12/26 08:47:58;;;;;;;5.40;4.40;;;;;;;-0.40;80.77;96387.28;6055346;23;20447;-68
2020/12/26 08:50:27;;;;;;;3.97;3.70;;;;;;;1.87;72.94;96386.31;6056221;23;20466;-68
2020/12/26 08:53:05;;;;;;;4.03;3.67;;;;;;;4.24;63.35;96381.59;6055062;23;20486;-68
2020/12/26 08:55:45;;;;;;;5.93;3.43;;;;;;;5.79;55.20;96384.84;6045287;23;20832;-68
2020/12/26 08:58:22;;;;;;;5.30;4.77;;;;;;;6.38;52.68;96389.13;6046898;23;20825;-68
2020/12/26 09:00:49;;;;;;;4.50;3.63;;;;;;;7.17;49.51;96382.72;6056087;23;20203;-68
2020/12/26 09:03:20;;;;;;;3.33;3.03;;;;;;;7.53;47.75;96371.31;6058407;23;20446;-68
2020/12/26 09:05:47;;;;;;;3.43;3.23;;;;;;;7.56;47.69;96381.53;6058608;23;20209;-68
2020/12/26 09:08:14;;;;;;;4.13;2.80;;;;;;;7.76;46.88;96391.91;6058146;23;20258;-68
2020/12/26 09:10:42;;;;;;;4.37;3.97;;;;;;;7.58;47.46;96390.06;6057212;23;20206;-68
2020/12/26 09:13:11;;;;;;;2.80;2.60;;;;;;;7.85;46.51;96391.00;6057822;23;20207;-68
2020/12/26 09:15:54;;;;;;;3.90;3.70;;;;;;;8.11;46.26;96389.31;6056197;23;20241;-68
2020/12/26 09:18:22;;;;;;;3.50;3.23;;;;;;;8.33;45.86;96387.19;6057721;23;20210;-68
2020/12/26 09:20:51;;;;;;;3.30;3.00;;;;;;;8.69;44.71;96378.31;6057301;23;20210;-68
2020/12/26 09:23:17;;;;;;;2.63;2.43;;;;;;;9.22;43.38;96374.63;6056243;23;20226;-68
2020/12/26 09:25:46;;;;;;;3.30;2.03;;;;;;;9.21;42.96;96375.59;6057504;23;20249;-67
2020/12/26 09:28:13;;;;;;;2.67;2.47;;;;;;;9.13;42.40;96370.31;6055887;23;20297;-68
2020/12/26 09:30:40;;;;;;;5.03;3.70;;;;;;;8.74;43.74;96378.66;6058052;23;20264;-68
2020/12/26 09:33:07;;;;;;;3.77;3.47;;;;;;;8.87;42.82;96374.75;6058742;23;20257;-68
2020/12/26 09:35:34;;;;;;;3.73;3.17;;;;;;;9.09;43.69;96371.63;6056746;23;20237;-69
2020/12/26 09:38:02;;;;;;;4.00;2.13;;;;;;;9.23;42.20;96368.38;6058754;23;20281;-68
2020/12/26 09:40:30;;;;;;;4.60;4.13;;;;;;;9.49;41.48;96362.22;6056050;23;20210;-68
2020/12/26 09:42:58;;;;;;;5.27;4.03;;;;;;;9.56;41.70;96368.50;6056037;23;20208;-68
2020/12/26 09:45:25;;;;;;;3.90;3.43;;;;;;;9.76;41.12;96359.34;6057998;23;20208;-69
2020/12/26 09:47:57;;;;;;;4.10;3.47;;;;;;;9.83;40.95;96357.69;6055912;23;20227;-69
2020/12/26 09:50:24;;;;;;;2.40;2.20;;;;;;;9.76;40.51;96355.88;6058020;23;20299;-68
2020/12/26 09:52:51;;;;;;;4.40;3.30;;;;;;;9.78;40.08;96356.53;6058548;23;20228;-68
2020/12/26 09:55:27;;;;;;;3.30;2.97;;;;;;;9.37;41.76;96354.63;6058434;23;20290;-68
2020/12/26 09:57:54;;;;;;;4.57;3.13;;;;;;;9.75;40.89;96352.41;6058105;23;20213;-71
2020/12/26 10:00:21;;;;;;;3.00;2.80;;;;;;;9.30;41.87;96356.22;6057823;23;20208;-71
2020/12/26 10:02:48;;;;;;;2.90;2.70;;;;;;;9.28;41.71;96360.00;6058077;23;20829;-70
2020/12/26 10:05:18;;;;;;;3.63;3.33;;;;;;;9.78;40.41;96351.25;6057832;23;20278;-70
2020/12/26 10:07:45;;;;;;;3.50;2.23;;;;;;;10.20;39.02;96359.06;6056594;23;20255;-70
2020/12/26 10:10:12;;;;;;;3.97;3.67;;;;;;;11.00;38.20;96354.72;6055738;23;20315;-68
2020/12/26 10:12:39;;;;;;;2.83;2.40;;;;;;;10.62;37.42;96350.19;6057813;23;20205;-69
2020/12/26 10:15:06;;;;;;;3.30;3.07;;;;;;;10.97;36.82;96354.22;6058401;23;20580;-68
2020/12/26 10:17:33;;;;;;;3.47;2.30;;;;;;;11.24;37.64;96339.78;6058406;23;20257;-69
2020/12/26 10:20:00;;;;;;;6.73;2.80;;;;;;;11.80;36.06;96336.09;6057777;23;20269;-69
2020/12/26 10:22:27;;;;;;;2.63;2.53;;;;;;;12.04;34.95;96327.16;6060675;23;20238;-69
2020/12/26 10:24:54;;;;;;;6.73;2.37;;;;;;;11.82;34.88;96327.97;6060218;23;20246;-69
2020/12/26 10:27:21;;;;;;;3.43;3.20;;;;;;;12.16;34.94;96330.19;6058477;23;20229;-71
2020/12/26 10:29:48;;;;;;;3.13;2.93;;;;;;;12.11;34.97;96328.09;6060033;23;20210;-69
2020/12/26 10:32:15;;;;;;;3.37;3.03;;;;;;;12.07;35.16;96326.81;6058242;23;20240;-69
2020/12/26 10:34:43;;;;;;;2.37;2.20;;;;;;;11.96;34.21;96328.03;6059415;23;20747;-69
2020/12/26 10:37:12;;;;;;;3.13;2.93;;;;;;;12.31;34.46;96339.00;6059079;23;20681;-68
2020/12/26 10:39:39;;;;;;;2.40;2.20;;;;;;;12.01;34.54;96332.78;6060070;23;20230;-69
2020/12/26 10:42:05;;;;;;;3.30;3.10;;;;;;;12.16;33.55;96336.34;6040987;23;20215;-69
2020/12/26 10:44:32;;;;;;;3.23;3.03;;;;;;;12.24;35.24;96338.06;6058910;23;20206;-69
2020/12/26 10:46:59;;;;;;;3.73;3.40;;;;;;;11.37;35.26;96326.84;6059465;23;20642;-69
2020/12/26 10:49:26;;;;;;;3.47;3.27;;;;;;;11.31;36.16;96317.78;6059372;23;20276;-70
2020/12/26 10:51:54;;;;;;;2.63;2.43;;;;;;;10.43;37.47;96331.06;6059760;23;20208;-69
2020/12/26 10:54:21;;;;;;;1.50;1.40;;;;;;;8.86;40.02;96331.00;6059510;23;20269;-69
2020/12/26 10:56:48;;;;;;;2.90;2.63;;;;;;;7.42;43.72;96329.53;6058281;23;20261;-69
2020/12/26 10:59:16;;;;;;;1.90;1.80;;;;;;;6.97;44.70;96326.84;6059792;23;20784;-69
2020/12/26 11:01:42;;;;;;;3.87;3.37;;;;;;;7.36;44.69;96327.47;6059644;23;20208;-69
2020/12/26 11:04:09;;;;;;;2.77;2.13;;;;;;;8.03;43.07;96323.50;6059540;23;20264;-69
2020/12/26 11:06:36;;;;;;;1.50;1.30;;;;;;;9.53;40.10;96318.78;6060249;23;20201;-68
2020/12/26 11:09:04;;;;;;;2.20;1.93;;;;;;;10.26;37.84;96313.59;6057521;23;20221;-69
2020/12/26 11:11:33;;;;;;;3.20;2.90;;;;;;;10.94;36.56;96313.16;6056159;23;20206;-70
2020/12/26 11:14:00;;;;;;;4.93;3.03;;;;;;;11.30;34.85;96302.13;6059091;23;20210;-69
2020/12/26 11:16:27;;;;;;;2.30;1.80;;;;;;;11.42;36.27;96300.72;6059917;23;20989;-69
2020/12/26 11:18:54;;;;;;;1.93;1.83;;;;;;;11.80;34.38;96292.94;6055969;23;20242;-69
2020/12/26 11:21:21;;;;;;;2.43;1.63;;;;;;;11.37;35.10;96287.22;6059358;23;20277;-69
2020/12/26 11:23:48;;;;;;;2.20;2.10;;;;;;;11.50;35.21;96284.81;6053420;23;20269;-68
2020/12/26 11:26:27;;;;;;;1.17;1.07;;;;;;;11.54;34.74;96286.13;6059558;23;20230;-69
2020/12/26 11:28:54;;;;;;;1.53;1.40;;;;;;;11.47;34.70;96281.72;6059235;23;21949;-69
2020/12/26 11:31:22;;;;;;;1.97;1.80;;;;;;;11.66;34.79;96276.78;6058952;23;20202;-69
2020/12/26 11:33:49;;;;;;;1.93;1.43;;;;;;;11.31;34.27;96278.16;6058652;23;20195;-69
2020/12/26 11:36:20;;;;;;;1.60;1.10;;;;;;;12.06;33.16;96274.06;6058869;23;20860;-69
2020/12/26 11:38:47;;;;;;;1.27;1.13;;;;;;;11.47;33.27;96271.97;6058399;23;20625;-69
2020/12/26 11:41:16;;;;;;;1.97;1.20;;;;;;;11.95;32.02;96268.19;6055226;23;20269;-69
2020/12/26 11:43:44;;;;;;;0.70;0.70;;;;;;;11.77;32.34;96261.53;6056175;23;20269;-70